AirNav  
 
 564 users online  

88C Palmyra Municipal Airport
Palmyra, Wisconsin, USA

GOING TO PALMYRA?


FAA INFORMATION EFFECTIVE 01 FEBRUARY 2018

Location

FAA Identifier: 88C
Lat/Long: 42-53-00.7600N / 088-35-59.7000W
42-53.012667N / 088-35.995000W
42.8835444 / -88.5999167
(estimated)
Elevation: 851 ft. / 259.4 m (surveyed)
Variation: 01W (1985)
Time zone: UTC -6 (UTC -5 during Daylight Saving Time)
Zip code: 53156

Airport Operations

Airport use: Open to the public
Activation date: 05/1949
Control tower: no
ARTCC: CHICAGO CENTER
FSS: GREEN BAY FLIGHT SERVICE STATION
NOTAMs facility: GRB (NOTAM-D service available)
Attendance: UNATNDD
Wind indicator: lighted
Segmented circle: yes
Lights: ACTVT LIRL RY 09/27 - CTAF.

Airport Communications

CTAF: 122.9
WX AWOS-3PT at 57C (11 nm SE): 118.125 (262-642-1845)
WX AWOS-3 at BUU (17 nm SE): 114.5 (262-757-0907)
WX AWOS-3 at RYV (18 nm N): 119.975 (920-261-0734)
WX AWOS-3 at UES (19 nm NE): 118.875 (262-521-5226)

Nearby radio navigation aids

VOR radial/distance  VOR name  Freq  Var
BUUr313/17.6BURBUN VOR/DME114.5001W
BAEr223/19.7BADGER VOR/DME116.4002E
LJTr243/28.2TIMMERMAN VOR/DME112.5002W
JVLr046/29.6JANESVILLE VOR/DME114.3003E
MSNr113/36.0MADISON VORTAC108.6003E
BJBr214/(38.4)WEST BEND VOR109.8001W

 
NDB name  Hdg/Dist  Freq  Var  ID
LAKE LAWN000/11.140402WLVV .-.. ...- ...-
ROCK RIVER163/18.337101WRYV .-. -.-- ...-
JUNEAU173/33.034401WUNU ..- -. ..-

Airport Services

Parking: tiedowns
Airframe service: NONE
Powerplant service: NONE
Bottled oxygen: NONE
Bulk oxygen: NONE

Runway Information

Runway 9/27

Dimensions: 2800 x 200 ft. / 853 x 61 m
Surface: turf, in good condition
Runway edge lights: low intensity
Runway edge markings: RWY 09 /27 MKD BY YELLOW CONES.
RUNWAY 9  RUNWAY 27
Latitude: 42-53.008667N42-53.016667N
Longitude: 088-36.308333W088-35.681667W
Elevation: 849.0 ft.850.5 ft.
Gradient: 0.2%0.2%
Traffic pattern: leftleft
Runway heading: 090 magnetic, 089 true270 magnetic, 269 true
Runway end identifier lights: nono
Touchdown point: yes, no lightsyes, no lights
Obstructions: 20 ft. tree, 400 ft. from runway, 160 ft. left of centerline, 20:1 slope to clear35 ft. tree, 700 ft. from runway, 200 ft. left of centerline, 20:1 slope to clear

Airport Ownership and Management from official FAA records

Ownership: Publicly-owned
Owner: PALMYRA TOWNSHIP
P O BOX 163
PALMYRA, WI 53156
Phone 262-495-4342
Manager: CHRIS MUELLER
718 W WISCONSIN ST
PALMYRA, WI 53156
Phone (262) 903-6510

Airport Operational Statistics

Aircraft based on the field: 83
Single engine airplanes: 82
Helicopters: 1
    
Aircraft operations: avg 38/day *
57% local general aviation
43% transient general aviation
* for 12-month period ending 06 May 2016

Instrument Procedures

There are no published instrument procedures at 88C.

Some nearby airports with instrument procedures:

61C - Fort Atkinson Municipal Airport (11 nm NW)
57C - East Troy Municipal Airport (11 nm SE)
KBUU - Burlington Municipal Airport (17 nm SE)
KRYV - Watertown Municipal Airport (18 nm N)
KUES - Waukesha County Airport (19 nm NE)
C02 - Grand Geneva Resort Airport (19 nm SE)
 
Loc | Ops | Rwys | IFR | FBO | Links
Com | Nav | Svcs | Stats | Notes

General Mitchell International Airport
 
Area around 88C (Palmyra Municipal Airport)
 
Road maps at: MapQuest Bing Google
 
Aerial photo
WARNING: Photo may not be current or correct
Aerial photo of 88C (Palmyra Municipal Airport)
Photo by Dick Adduci
Photo taken 21-Apr-2012
looking northwest.

Do you have a better or more recent aerial photo of Palmyra Municipal Airport that you would like to share? If so, please send us your photo.

 
Sectional chart

 
Airport distance calculator
Flying to Palmyra Municipal Airport? Find the distance to fly.

From to 88C

Sunrise and sunset
Times for 24-Feb-2018
 Local
(UTC-6)
 Zulu
(UTC)
Morning civil twilight06:1112:11
Sunrise06:3912:39
Sunset17:3623:36
Evening civil twilight18:0500:05

Current date and time
Zulu (UTC)  24-Feb-2018 06:03:46
Local (UTC-6)  24-Feb-2018 00:03:46
 
METAR
KRYV 
18nm N 
240555Z AUTO 00000KT 10SM BKN019 M02/M03 A3028 RMK AO2 T10201033 10010 21025 400281025
KBUU 
18nm SE 
240555Z AUTO 35005KT 10SM CLR M01/M03 A3027 RMK AO2 T10101029 10015 21017 400451017
KUES 
22nm E 
240555Z AUTO 00000KT 10SM CLR M02/M05 A3028 RMK AO2
KJVL 
24nm SW 
240555Z AUTO 34004KT 10SM CLR 00/00 A3027 RMK AO2
KMWC 
29nm NE 
240555Z AUTO 00000KT 10SM BKN019 M01/M05 A3028 RMK AO2
KMKE 
31nm E 
240552Z 32004KT 10SM CLR 01/M03 A3027 RMK AO2 SLP258 T00061028 10033 20006 400560006 52010
KUNU 
32nm N 
240555Z AUTO 33004KT 10SM OVC019 M02/M05 A3028 RMK AO2 T10161048 10008 21017 400201017
KENW 
34nm SE 
240553Z AUTO 32004KT 7SM CLR 00/M02 A3026 RMK AO2 SLP255 T00001022 10022 21017 400611017 53002
KRAC 
35nm E 
240553Z AUTO 34004KT 9SM OVC020 00/M02 A3028 RMK AO2 SLP262 T00001017 10028 21011 400561011 53006
TAF
KUES 
22nm E 
240522Z 2406/2506 34006KT P6SM SCT020 FM240645 34005KT P6SM BKN019 FM240800 02004KT P6SM SCT020 FM241400 05008KT P6SM BKN022 FM242300 09015KT P6SM -SHRA OVC015 FM250100 10015G25KT 6SM -RA OVC008 FM250300 12015G26KT 4SM -RA BR OVC003 WS020/15045KT
NOTAMs
Click for the latest NOTAMs
NOTAMs are issued by the DoD/FAA and will open in a separate window not controlled by AirNav.

 

 
 

Would you like to see your business listed on this page?

 If your business provides an interesting product or service to pilots, flight crews, aircraft, or users of the Palmyra Municipal Airport, you should consider listing it here.  To start the listing process, click on the button below
 
Add a business
 

Other Pages about Palmyra Municipal Airport

Page from the Wisconsin airport directory (PDF)
 
Update a link
 
Copyright © AirNav, LLC. All rights reserved. Privacy Policy  Contact